sensor_id;sensor_type;location;lat;lon;timestamp;P1;durP1;ratioP1;P2;durP2;ratioP2
74799;SDS011;63326;45.088;7.658;2022-09-30T00:00:31;7.88;;;2.70;;
74799;SDS011;63326;45.088;7.658;2022-09-30T00:02:58;5.28;;;2.08;;
74799;SDS011;63326;45.088;7.658;2022-09-30T00:05:25;6.30;;;2.13;;
74799;SDS011;63326;45.088;7.658;2022-09-30T00:07:51;6.25;;;2.53;;
74799;SDS011;63326;45.088;7.658;2022-09-30T00:10:18;5.07;;;1.55;;
74799;SDS011;63326;45.088;7.658;2022-09-30T00:12:44;6.13;;;1.83;;
74799;SDS011;63326;45.088;7.658;2022-09-30T00:15:12;3.83;;;1.73;;
74799;SDS011;63326;45.088;7.658;2022-09-30T00:17:39;4.85;;;2.03;;
74799;SDS011;63326;45.088;7.658;2022-09-30T00:20:05;4.93;;;1.77;;
74799;SDS011;63326;45.088;7.658;2022-09-30T00:22:33;6.22;;;2.63;;
74799;SDS011;63326;45.088;7.658;2022-09-30T00:25:00;4.00;;;2.03;;
74799;SDS011;63326;45.088;7.658;2022-09-30T00:27:26;6.70;;;1.98;;
74799;SDS011;63326;45.088;7.658;2022-09-30T00:29:53;6.40;;;1.83;;
74799;SDS011;63326;45.088;7.658;2022-09-30T00:32:20;2.15;;;1.08;;
74799;SDS011;63326;45.088;7.658;2022-09-30T00:34:46;4.40;;;1.48;;
74799;SDS011;63326;45.088;7.658;2022-09-30T00:37:13;4.43;;;1.50;;
74799;SDS011;63326;45.088;7.658;2022-09-30T00:39:40;5.18;;;2.00;;
74799;SDS011;63326;45.088;7.658;2022-09-30T00:42:10;4.18;;;1.38;;
74799;SDS011;63326;45.088;7.658;2022-09-30T00:53:19;4.03;;;1.60;;
74799;SDS011;63326;45.088;7.658;2022-09-30T00:55:49;3.13;;;1.05;;
74799;SDS011;63326;45.088;7.658;2022-09-30T01:00:54;5.00;;;1.77;;
74799;SDS011;63326;45.088;7.658;2022-09-30T01:03:23;4.78;;;2.20;;
74799;SDS011;63326;45.088;7.658;2022-09-30T01:05:50;3.90;;;1.55;;
74799;SDS011;63326;45.088;7.658;2022-09-30T01:08:18;3.83;;;1.60;;
74799;SDS011;63326;45.088;7.658;2022-09-30T01:10:46;5.30;;;1.80;;
74799;SDS011;63326;45.088;7.658;2022-09-30T01:13:12;3.55;;;1.23;;
74799;SDS011;63326;45.088;7.658;2022-09-30T01:45:41;3.80;;;1.45;;
74799;SDS011;63326;45.088;7.658;2022-09-30T01:51:30;3.88;;;1.55;;
74799;SDS011;63326;45.088;7.658;2022-09-30T01:54:02;4.78;;;1.25;;
74799;SDS011;63326;45.088;7.658;2022-09-30T01:56:37;2.22;;;1.00;;
74799;SDS011;63326;45.088;7.658;2022-09-30T01:59:09;3.55;;;1.60;;
74799;SDS011;63326;45.088;7.658;2022-09-30T02:04:52;2.58;;;1.75;;
74799;SDS011;63326;45.088;7.658;2022-09-30T02:07:31;4.00;;;1.77;;
74799;SDS011;63326;45.088;7.658;2022-09-30T02:10:09;4.75;;;1.45;;
74799;SDS011;63326;45.088;7.658;2022-09-30T02:12:40;2.33;;;1.00;;
74799;SDS011;63326;45.088;7.658;2022-09-30T02:15:12;2.38;;;1.58;;
74799;SDS011;63326;45.088;7.658;2022-09-30T02:17:45;5.30;;;1.75;;
74799;SDS011;63326;45.088;7.658;2022-09-30T02:20:15;3.30;;;1.10;;
74799;SDS011;63326;45.088;7.658;2022-09-30T02:22:45;3.78;;;1.65;;
74799;SDS011;63326;45.088;7.658;2022-09-30T02:25:18;4.13;;;1.60;;
74799;SDS011;63326;45.088;7.658;2022-09-30T02:27:58;3.25;;;1.45;;
74799;SDS011;63326;45.088;7.658;2022-09-30T02:30:26;2.97;;;1.13;;
74799;SDS011;63326;45.088;7.658;2022-09-30T02:33:00;5.30;;;2.17;;
74799;SDS011;63326;45.088;7.658;2022-09-30T02:35:30;2.05;;;0.90;;
74799;SDS011;63326;45.088;7.658;2022-09-30T02:38:25;2.17;;;1.35;;
74799;SDS011;63326;45.088;7.658;2022-09-30T02:41:00;3.65;;;1.17;;
74799;SDS011;63326;45.088;7.658;2022-09-30T02:43:28;2.78;;;1.35;;
74799;SDS011;63326;45.088;7.658;2022-09-30T02:46:02;3.67;;;1.30;;
74799;SDS011;63326;45.088;7.658;2022-09-30T02:51:14;2.10;;;1.10;;
74799;SDS011;63326;45.088;7.658;2022-09-30T02:54:31;3.53;;;1.05;;
74799;SDS011;63326;45.088;7.658;2022-09-30T02:56:52;3.58;;;1.45;;
74799;SDS011;63326;45.088;7.658;2022-09-30T02:59:22;2.97;;;0.98;;
74799;SDS011;63326;45.088;7.658;2022-09-30T03:01:49;1.92;;;0.98;;
74799;SDS011;63326;45.088;7.658;2022-09-30T03:04:18;2.63;;;1.02;;
74799;SDS011;63326;45.088;7.658;2022-09-30T03:06:48;3.53;;;0.98;;
74799;SDS011;63326;45.088;7.658;2022-09-30T03:09:14;1.73;;;0.98;;
74799;SDS011;63326;45.088;7.658;2022-09-30T03:11:41;3.72;;;1.25;;
74799;SDS011;63326;45.088;7.658;2022-09-30T03:28:37;3.88;;;1.10;;
74799;SDS011;63326;45.088;7.658;2022-09-30T03:33:54;3.58;;;1.40;;
74799;SDS011;63326;45.088;7.658;2022-09-30T03:36:39;2.65;;;1.13;;
74799;SDS011;63326;45.088;7.658;2022-09-30T03:39:27;1.80;;;1.10;;
74799;SDS011;63326;45.088;7.658;2022-09-30T03:47:34;5.47;;;1.67;;
74799;SDS011;63326;45.088;7.658;2022-09-30T03:50:06;6.85;;;1.52;;
74799;SDS011;63326;45.088;7.658;2022-09-30T03:52:35;4.18;;;1.65;;
74799;SDS011;63326;45.088;7.658;2022-09-30T03:55:04;5.63;;;2.45;;
74799;SDS011;63326;45.088;7.658;2022-09-30T03:57:31;4.82;;;1.65;;
74799;SDS011;63326;45.088;7.658;2022-09-30T03:59:58;5.68;;;1.55;;
74799;SDS011;63326;45.088;7.658;2022-09-30T04:02:26;4.65;;;1.52;;
74799;SDS011;63326;45.088;7.658;2022-09-30T04:04:52;8.95;;;1.90;;
74799;SDS011;63326;45.088;7.658;2022-09-30T04:07:19;7.47;;;2.35;;
74799;SDS011;63326;45.088;7.658;2022-09-30T04:09:45;4.40;;;1.85;;
74799;SDS011;63326;45.088;7.658;2022-09-30T04:12:12;4.72;;;1.90;;
74799;SDS011;63326;45.088;7.658;2022-09-30T04:14:39;5.57;;;2.03;;
74799;SDS011;63326;45.088;7.658;2022-09-30T04:17:05;4.32;;;1.45;;
74799;SDS011;63326;45.088;7.658;2022-09-30T04:19:32;3.72;;;1.60;;
74799;SDS011;63326;45.088;7.658;2022-09-30T04:22:03;7.57;;;1.92;;
74799;SDS011;63326;45.088;7.658;2022-09-30T04:24:29;3.58;;;1.67;;
74799;SDS011;63326;45.088;7.658;2022-09-30T04:26:56;2.83;;;1.25;;
74799;SDS011;63326;45.088;7.658;2022-09-30T04:29:23;3.70;;;1.42;;
74799;SDS011;63326;45.088;7.658;2022-09-30T04:31:49;3.95;;;1.48;;
74799;SDS011;63326;45.088;7.658;2022-09-30T04:34:16;3.38;;;1.00;;
74799;SDS011;63326;45.088;7.658;2022-09-30T04:36:43;3.22;;;1.45;;
74799;SDS011;63326;45.088;7.658;2022-09-30T04:39:10;3.83;;;1.15;;
74799;SDS011;63326;45.088;7.658;2022-09-30T04:41:36;4.43;;;2.03;;
74799;SDS011;63326;45.088;7.658;2022-09-30T04:44:03;2.33;;;1.02;;
74799;SDS011;63326;45.088;7.658;2022-09-30T04:46:33;2.67;;;1.23;;
74799;SDS011;63326;45.088;7.658;2022-09-30T04:49:04;4.03;;;2.05;;
74799;SDS011;63326;45.088;7.658;2022-09-30T04:51:35;2.85;;;1.05;;
74799;SDS011;63326;45.088;7.658;2022-09-30T04:54:02;3.83;;;2.15;;
74799;SDS011;63326;45.088;7.658;2022-09-30T04:56:28;3.13;;;1.73;;
74799;SDS011;63326;45.088;7.658;2022-09-30T04:58:55;3.50;;;1.45;;
74799;SDS011;63326;45.088;7.658;2022-09-30T05:01:21;4.88;;;1.20;;
74799;SDS011;63326;45.088;7.658;2022-09-30T05:03:48;2.70;;;1.25;;
74799;SDS011;63326;45.088;7.658;2022-09-30T05:06:15;3.55;;;1.75;;
74799;SDS011;63326;45.088;7.658;2022-09-30T05:08:42;1.67;;;1.20;;
74799;SDS011;63326;45.088;7.658;2022-09-30T05:11:18;2.97;;;1.10;;
74799;SDS011;63326;45.088;7.658;2022-09-30T05:13:46;2.45;;;1.27;;
74799;SDS011;63326;45.088;7.658;2022-09-30T05:16:13;2.22;;;0.90;;
74799;SDS011;63326;45.088;7.658;2022-09-30T05:18:40;1.17;;;0.88;;
74799;SDS011;63326;45.088;7.658;2022-09-30T05:21:15;3.45;;;1.20;;
74799;SDS011;63326;45.088;7.658;2022-09-30T05:23:45;3.22;;;1.10;;
74799;SDS011;63326;45.088;7.658;2022-09-30T05:26:12;3.15;;;1.30;;
74799;SDS011;63326;45.088;7.658;2022-09-30T05:28:39;2.97;;;1.10;;
74799;SDS011;63326;45.088;7.658;2022-09-30T05:31:07;4.60;;;1.70;;
74799;SDS011;63326;45.088;7.658;2022-09-30T05:33:33;1.65;;;0.90;;
74799;SDS011;63326;45.088;7.658;2022-09-30T05:36:01;1.92;;;1.27;;
74799;SDS011;63326;45.088;7.658;2022-09-30T05:38:30;3.00;;;1.15;;
74799;SDS011;63326;45.088;7.658;2022-09-30T05:40:57;3.22;;;0.75;;
74799;SDS011;63326;45.088;7.658;2022-09-30T05:43:23;4.68;;;1.42;;
74799;SDS011;63326;45.088;7.658;2022-09-30T05:45:50;3.15;;;1.23;;
74799;SDS011;63326;45.088;7.658;2022-09-30T05:48:18;2.35;;;0.93;;
74799;SDS011;63326;45.088;7.658;2022-09-30T05:50:45;3.53;;;1.10;;
74799;SDS011;63326;45.088;7.658;2022-09-30T05:53:16;3.05;;;1.58;;
74799;SDS011;63326;45.088;7.658;2022-09-30T05:55:44;3.22;;;1.33;;
74799;SDS011;63326;45.088;7.658;2022-09-30T05:58:15;3.63;;;1.00;;
74799;SDS011;63326;45.088;7.658;2022-09-30T06:00:43;2.90;;;0.75;;
74799;SDS011;63326;45.088;7.658;2022-09-30T06:03:10;2.50;;;1.40;;
74799;SDS011;63326;45.088;7.658;2022-09-30T06:05:37;2.20;;;1.00;;
74799;SDS011;63326;45.088;7.658;2022-09-30T06:08:03;4.72;;;1.30;;
74799;SDS011;63326;45.088;7.658;2022-09-30T06:10:33;2.78;;;1.35;;
74799;SDS011;63326;45.088;7.658;2022-09-30T06:13:03;2.67;;;1.15;;
74799;SDS011;63326;45.088;7.658;2022-09-30T06:15:30;2.42;;;0.88;;
74799;SDS011;63326;45.088;7.658;2022-09-30T06:17:56;3.67;;;1.27;;
74799;SDS011;63326;45.088;7.658;2022-09-30T06:20:23;3.97;;;1.30;;
74799;SDS011;63326;45.088;7.658;2022-09-30T06:22:50;3.80;;;1.02;;
74799;SDS011;63326;45.088;7.658;2022-09-30T06:25:16;1.33;;;0.85;;
74799;SDS011;63326;45.088;7.658;2022-09-30T06:27:43;3.72;;;1.50;;
74799;SDS011;63326;45.088;7.658;2022-09-30T06:30:11;2.10;;;1.20;;
74799;SDS011;63326;45.088;7.658;2022-09-30T06:32:38;2.28;;;1.00;;
74799;SDS011;63326;45.088;7.658;2022-09-30T06:35:05;2.47;;;1.20;;
74799;SDS011;63326;45.088;7.658;2022-09-30T06:37:31;2.65;;;1.60;;
74799;SDS011;63326;45.088;7.658;2022-09-30T06:39:58;4.18;;;1.23;;
74799;SDS011;63326;45.088;7.658;2022-09-30T06:42:24;2.67;;;1.00;;
74799;SDS011;63326;45.088;7.658;2022-09-30T06:44:51;1.48;;;0.88;;
74799;SDS011;63326;45.088;7.658;2022-09-30T06:47:19;3.38;;;1.00;;
74799;SDS011;63326;45.088;7.658;2022-09-30T06:49:51;2.88;;;1.08;;
74799;SDS011;63326;45.088;7.658;2022-09-30T06:52:18;3.15;;;1.20;;
74799;SDS011;63326;45.088;7.658;2022-09-30T06:54:45;2.47;;;1.10;;
74799;SDS011;63326;45.088;7.658;2022-09-30T06:57:12;1.65;;;0.77;;
74799;SDS011;63326;45.088;7.658;2022-09-30T06:59:39;2.22;;;1.10;;
74799;SDS011;63326;45.088;7.658;2022-09-30T07:02:05;2.28;;;0.75;;
74799;SDS011;63326;45.088;7.658;2022-09-30T07:04:34;2.47;;;1.00;;
74799;SDS011;63326;45.088;7.658;2022-09-30T07:07:00;2.65;;;0.90;;
74799;SDS011;63326;45.088;7.658;2022-09-30T07:09:28;1.52;;;0.60;;
74799;SDS011;63326;45.088;7.658;2022-09-30T07:11:54;1.85;;;1.10;;
74799;SDS011;63326;45.088;7.658;2022-09-30T07:14:21;1.80;;;0.73;;
74799;SDS011;63326;45.088;7.658;2022-09-30T07:16:49;0.88;;;0.60;;
74799;SDS011;63326;45.088;7.658;2022-09-30T07:19:19;3.55;;;1.38;;
74799;SDS011;63326;45.088;7.658;2022-09-30T07:21:48;1.60;;;1.23;;
74799;SDS011;63326;45.088;7.658;2022-09-30T07:24:15;2.50;;;0.82;;
74799;SDS011;63326;45.088;7.658;2022-09-30T07:26:42;1.27;;;0.57;;
74799;SDS011;63326;45.088;7.658;2022-09-30T07:29:11;1.63;;;0.77;;
74799;SDS011;63326;45.088;7.658;2022-09-30T07:31:38;1.92;;;1.00;;
74799;SDS011;63326;45.088;7.658;2022-09-30T07:34:06;2.45;;;1.05;;
74799;SDS011;63326;45.088;7.658;2022-09-30T07:36:35;1.20;;;0.60;;
74799;SDS011;63326;45.088;7.658;2022-09-30T07:39:04;2.53;;;0.90;;
74799;SDS011;63326;45.088;7.658;2022-09-30T07:41:34;1.13;;;0.70;;
74799;SDS011;63326;45.088;7.658;2022-09-30T07:44:02;3.33;;;1.38;;
74799;SDS011;63326;45.088;7.658;2022-09-30T07:46:32;2.97;;;0.98;;
74799;SDS011;63326;45.088;7.658;2022-09-30T07:48:59;1.83;;;0.70;;
74799;SDS011;63326;45.088;7.658;2022-09-30T07:51:30;1.17;;;0.60;;
74799;SDS011;63326;45.088;7.658;2022-09-30T07:54:02;1.63;;;0.82;;
74799;SDS011;63326;45.088;7.658;2022-09-30T07:56:36;2.35;;;0.80;;
74799;SDS011;63326;45.088;7.658;2022-09-30T07:59:24;1.98;;;0.82;;
74799;SDS011;63326;45.088;7.658;2022-09-30T08:04:19;1.27;;;0.68;;
74799;SDS011;63326;45.088;7.658;2022-09-30T08:06:48;2.00;;;1.08;;
74799;SDS011;63326;45.088;7.658;2022-09-30T08:09:19;2.58;;;1.02;;
74799;SDS011;63326;45.088;7.658;2022-09-30T08:11:47;3.65;;;1.23;;
74799;SDS011;63326;45.088;7.658;2022-09-30T08:14:18;1.05;;;0.52;;
74799;SDS011;63326;45.088;7.658;2022-09-30T08:16:46;3.17;;;1.00;;
74799;SDS011;63326;45.088;7.658;2022-09-30T08:19:14;4.18;;;0.95;;
74799;SDS011;63326;45.088;7.658;2022-09-30T08:21:42;1.55;;;0.80;;
74799;SDS011;63326;45.088;7.658;2022-09-30T08:24:09;1.40;;;0.63;;
74799;SDS011;63326;45.088;7.658;2022-09-30T08:26:37;2.08;;;1.05;;
74799;SDS011;63326;45.088;7.658;2022-09-30T08:29:04;1.42;;;0.65;;
74799;SDS011;63326;45.088;7.658;2022-09-30T08:31:31;0.95;;;0.50;;
74799;SDS011;63326;45.088;7.658;2022-09-30T08:33:58;2.60;;;1.00;;
74799;SDS011;63326;45.088;7.658;2022-09-30T08:36:25;1.85;;;0.57;;
74799;SDS011;63326;45.088;7.658;2022-09-30T08:38:52;1.98;;;0.73;;
74799;SDS011;63326;45.088;7.658;2022-09-30T08:46:47;2.75;;;0.80;;
74799;SDS011;63326;45.088;7.658;2022-09-30T08:52:35;2.13;;;0.80;;
74799;SDS011;63326;45.088;7.658;2022-09-30T08:55:57;2.58;;;0.65;;
74799;SDS011;63326;45.088;7.658;2022-09-30T08:58:05;1.45;;;0.77;;
74799;SDS011;63326;45.088;7.658;2022-09-30T09:03:08;3.28;;;0.90;;
74799;SDS011;63326;45.088;7.658;2022-09-30T09:14:13;1.85;;;0.65;;
74799;SDS011;63326;45.088;7.658;2022-09-30T09:20:07;2.97;;;1.00;;
74799;SDS011;63326;45.088;7.658;2022-09-30T09:22:36;2.35;;;0.75;;
74799;SDS011;63326;45.088;7.658;2022-09-30T09:25:04;1.80;;;0.70;;
74799;SDS011;63326;45.088;7.658;2022-09-30T09:30:04;3.20;;;1.20;;
74799;SDS011;63326;45.088;7.658;2022-09-30T09:32:33;1.60;;;0.70;;
74799;SDS011;63326;45.088;7.658;2022-09-30T09:35:21;1.10;;;0.80;;
74799;SDS011;63326;45.088;7.658;2022-09-30T09:43:42;1.02;;;0.60;;
74799;SDS011;63326;45.088;7.658;2022-09-30T09:51:42;2.03;;;0.70;;
74799;SDS011;63326;45.088;7.658;2022-09-30T09:54:33;2.53;;;0.82;;
74799;SDS011;63326;45.088;7.658;2022-09-30T09:57:16;1.88;;;0.95;;
74799;SDS011;63326;45.088;7.658;2022-09-30T10:03:05;1.40;;;0.68;;
74799;SDS011;63326;45.088;7.658;2022-09-30T10:05:38;2.90;;;1.08;;
74799;SDS011;63326;45.088;7.658;2022-09-30T10:08:09;1.55;;;0.73;;
74799;SDS011;63326;45.088;7.658;2022-09-30T10:10:42;1.88;;;0.57;;
74799;SDS011;63326;45.088;7.658;2022-09-30T10:13:16;3.28;;;0.77;;
74799;SDS011;63326;45.088;7.658;2022-09-30T10:15:46;2.10;;;0.90;;
74799;SDS011;63326;45.088;7.658;2022-09-30T10:18:17;2.58;;;1.08;;
74799;SDS011;63326;45.088;7.658;2022-09-30T10:20:50;2.58;;;1.00;;
74799;SDS011;63326;45.088;7.658;2022-09-30T10:23:26;1.33;;;0.52;;
74799;SDS011;63326;45.088;7.658;2022-09-30T10:28:25;4.32;;;1.25;;
74799;SDS011;63326;45.088;7.658;2022-09-30T10:31:00;1.55;;;0.80;;
74799;SDS011;63326;45.088;7.658;2022-09-30T10:33:40;1.30;;;0.50;;
74799;SDS011;63326;45.088;7.658;2022-09-30T10:41:31;2.10;;;0.90;;
74799;SDS011;63326;45.088;7.658;2022-09-30T10:44:01;2.97;;;1.15;;
74799;SDS011;63326;45.088;7.658;2022-09-30T10:46:30;3.22;;;1.08;;
74799;SDS011;63326;45.088;7.658;2022-09-30T10:49:06;4.60;;;1.10;;
74799;SDS011;63326;45.088;7.658;2022-09-30T10:51:37;2.03;;;0.68;;
74799;SDS011;63326;45.088;7.658;2022-09-30T10:54:04;1.58;;;0.77;;
74799;SDS011;63326;45.088;7.658;2022-09-30T10:56:36;3.58;;;0.90;;
74799;SDS011;63326;45.088;7.658;2022-09-30T10:59:12;1.40;;;0.80;;
74799;SDS011;63326;45.088;7.658;2022-09-30T11:01:46;1.05;;;0.63;;
74799;SDS011;63326;45.088;7.658;2022-09-30T11:06:48;1.35;;;0.60;;
74799;SDS011;63326;45.088;7.658;2022-09-30T11:09:19;1.63;;;0.50;;
74799;SDS011;63326;45.088;7.658;2022-09-30T11:11:54;1.73;;;0.65;;
74799;SDS011;63326;45.088;7.658;2022-09-30T11:14:43;2.47;;;0.60;;
74799;SDS011;63326;45.088;7.658;2022-09-30T11:20:19;2.58;;;1.20;;
74799;SDS011;63326;45.088;7.658;2022-09-30T11:23:05;1.75;;;0.60;;
74799;SDS011;63326;45.088;7.658;2022-09-30T11:25:51;0.77;;;0.68;;
74799;SDS011;63326;45.088;7.658;2022-09-30T11:31:53;0.90;;;0.57;;
74799;SDS011;63326;45.088;7.658;2022-09-30T11:37:02;1.25;;;0.70;;
74799;SDS011;63326;45.088;7.658;2022-09-30T11:42:17;0.85;;;0.55;;
74799;SDS011;63326;45.088;7.658;2022-09-30T11:44:50;1.20;;;0.38;;
74799;SDS011;63326;45.088;7.658;2022-09-30T11:53:15;1.13;;;0.35;;
74799;SDS011;63326;45.088;7.658;2022-09-30T11:58:25;0.57;;;0.35;;
74799;SDS011;63326;45.088;7.658;2022-09-30T12:03:48;1.70;;;0.50;;
74799;SDS011;63326;45.088;7.658;2022-09-30T12:06:23;1.73;;;0.40;;
74799;SDS011;63326;45.088;7.658;2022-09-30T12:08:55;2.78;;;0.82;;
74799;SDS011;63326;45.088;7.658;2022-09-30T12:11:29;0.95;;;0.50;;
74799;SDS011;63326;45.088;7.658;2022-09-30T12:14:00;1.45;;;0.40;;
74799;SDS011;63326;45.088;7.658;2022-09-30T12:16:31;0.45;;;0.28;;
74799;SDS011;63326;45.088;7.658;2022-09-30T12:19:01;1.35;;;0.50;;
74799;SDS011;63326;45.088;7.658;2022-09-30T12:21:38;1.83;;;0.60;;
74799;SDS011;63326;45.088;7.658;2022-09-30T12:24:23;1.20;;;0.82;;
74799;SDS011;63326;45.088;7.658;2022-09-30T12:26:53;1.33;;;0.75;;
74799;SDS011;63326;45.088;7.658;2022-09-30T12:29:21;2.55;;;0.55;;
74799;SDS011;63326;45.088;7.658;2022-09-30T12:46:18;1.55;;;0.60;;
74799;SDS011;63326;45.088;7.658;2022-09-30T12:48:50;1.33;;;0.70;;
74799;SDS011;63326;45.088;7.658;2022-09-30T12:51:40;3.33;;;0.75;;
74799;SDS011;63326;45.088;7.658;2022-09-30T12:54:20;1.75;;;0.60;;
74799;SDS011;63326;45.088;7.658;2022-09-30T12:56:57;1.35;;;0.60;;
74799;SDS011;63326;45.088;7.658;2022-09-30T12:59:27;3.70;;;0.80;;
74799;SDS011;63326;45.088;7.658;2022-09-30T13:01:56;1.23;;;0.80;;
74799;SDS011;63326;45.088;7.658;2022-09-30T13:09:30;1.98;;;0.75;;
74799;SDS011;63326;45.088;7.658;2022-09-30T13:22:54;1.58;;;0.70;;
74799;SDS011;63326;45.088;7.658;2022-09-30T13:25:21;2.00;;;1.00;;
74799;SDS011;63326;45.088;7.658;2022-09-30T13:32:48;1.00;;;0.63;;
74799;SDS011;63326;45.088;7.658;2022-09-30T13:35:34;1.10;;;0.60;;
74799;SDS011;63326;45.088;7.658;2022-09-30T13:38:32;2.20;;;0.85;;
74799;SDS011;63326;45.088;7.658;2022-09-30T13:43:37;5.43;;;0.77;;
74799;SDS011;63326;45.088;7.658;2022-09-30T13:46:50;2.90;;;0.82;;
74799;SDS011;63326;45.088;7.658;2022-09-30T13:49:22;1.67;;;0.50;;
74799;SDS011;63326;45.088;7.658;2022-09-30T13:51:51;2.03;;;0.63;;
74799;SDS011;63326;45.088;7.658;2022-09-30T13:56:57;1.65;;;0.63;;
74799;SDS011;63326;45.088;7.658;2022-09-30T14:10:38;1.13;;;0.50;;
74799;SDS011;63326;45.088;7.658;2022-09-30T14:19:42;5.35;;;0.93;;
74799;SDS011;63326;45.088;7.658;2022-09-30T14:22:24;1.58;;;0.80;;
74799;SDS011;63326;45.088;7.658;2022-09-30T14:24:52;1.02;;;0.50;;
74799;SDS011;63326;45.088;7.658;2022-09-30T14:30:19;1.45;;;0.47;;
74799;SDS011;63326;45.088;7.658;2022-09-30T14:32:54;1.20;;;0.68;;
74799;SDS011;63326;45.088;7.658;2022-09-30T14:35:29;0.98;;;0.40;;
74799;SDS011;63326;45.088;7.658;2022-09-30T14:38:18;1.52;;;0.70;;
74799;SDS011;63326;45.088;7.658;2022-09-30T14:40:48;1.92;;;0.77;;
74799;SDS011;63326;45.088;7.658;2022-09-30T14:43:19;1.30;;;0.70;;
74799;SDS011;63326;45.088;7.658;2022-09-30T14:45:49;2.38;;;0.77;;
74799;SDS011;63326;45.088;7.658;2022-09-30T14:48:26;0.82;;;0.60;;
74799;SDS011;63326;45.088;7.658;2022-09-30T14:50:59;3.67;;;1.08;;
74799;SDS011;63326;45.088;7.658;2022-09-30T14:53:28;2.58;;;0.80;;
74799;SDS011;63326;45.088;7.658;2022-09-30T14:55:56;2.28;;;0.55;;
74799;SDS011;63326;45.088;7.658;2022-09-30T14:58:27;0.68;;;0.55;;
74799;SDS011;63326;45.088;7.658;2022-09-30T15:01:11;2.72;;;0.88;;
74799;SDS011;63326;45.088;7.658;2022-09-30T15:03:41;2.20;;;0.68;;
74799;SDS011;63326;45.088;7.658;2022-09-30T15:06:26;3.20;;;0.65;;
74799;SDS011;63326;45.088;7.658;2022-09-30T15:09:05;2.50;;;0.82;;
74799;SDS011;63326;45.088;7.658;2022-09-30T15:11:33;1.65;;;0.70;;
74799;SDS011;63326;45.088;7.658;2022-09-30T15:14:06;2.08;;;0.65;;
74799;SDS011;63326;45.088;7.658;2022-09-30T15:16:43;0.50;;;0.40;;
74799;SDS011;63326;45.088;7.658;2022-09-30T15:19:12;1.40;;;0.63;;
74799;SDS011;63326;45.088;7.658;2022-09-30T15:21:42;1.13;;;0.70;;
74799;SDS011;63326;45.088;7.658;2022-09-30T15:24:10;2.03;;;1.00;;
74799;SDS011;63326;45.088;7.658;2022-09-30T15:26:37;1.73;;;1.00;;
74799;SDS011;63326;45.088;7.658;2022-09-30T15:29:04;1.45;;;0.70;;
74799;SDS011;63326;45.088;7.658;2022-09-30T15:31:30;1.75;;;0.63;;
74799;SDS011;63326;45.088;7.658;2022-09-30T15:34:01;2.05;;;0.82;;
74799;SDS011;63326;45.088;7.658;2022-09-30T15:36:30;2.00;;;0.68;;
74799;SDS011;63326;45.088;7.658;2022-09-30T15:38:57;3.28;;;0.75;;
74799;SDS011;63326;45.088;7.658;2022-09-30T15:41:24;2.42;;;0.95;;
74799;SDS011;63326;45.088;7.658;2022-09-30T15:43:51;1.73;;;0.80;;
74799;SDS011;63326;45.088;7.658;2022-09-30T15:46:21;1.35;;;0.77;;
74799;SDS011;63326;45.088;7.658;2022-09-30T15:49:04;2.42;;;0.60;;
74799;SDS011;63326;45.088;7.658;2022-09-30T15:51:37;1.98;;;0.90;;
74799;SDS011;63326;45.088;7.658;2022-09-30T15:56:41;1.30;;;0.60;;
74799;SDS011;63326;45.088;7.658;2022-09-30T15:59:09;1.88;;;0.65;;
74799;SDS011;63326;45.088;7.658;2022-09-30T16:04:09;1.67;;;0.63;;
74799;SDS011;63326;45.088;7.658;2022-09-30T16:09:07;1.90;;;0.65;;
74799;SDS011;63326;45.088;7.658;2022-09-30T16:19:52;1.08;;;0.55;;
74799;SDS011;63326;45.088;7.658;2022-09-30T16:28:10;2.00;;;0.88;;
74799;SDS011;63326;45.088;7.658;2022-09-30T16:30:44;3.08;;;1.13;;
74799;SDS011;63326;45.088;7.658;2022-09-30T16:33:13;2.50;;;0.85;;
74799;SDS011;63326;45.088;7.658;2022-09-30T16:35:41;2.92;;;1.08;;
74799;SDS011;63326;45.088;7.658;2022-09-30T16:38:09;2.45;;;0.93;;
74799;SDS011;63326;45.088;7.658;2022-09-30T21:54:05;4.88;;;2.42;;
74799;SDS011;63326;45.088;7.658;2022-09-30T21:56:31;6.40;;;3.15;;
74799;SDS011;63326;45.088;7.658;2022-09-30T21:58:58;6.47;;;2.70;;
74799;SDS011;63326;45.088;7.658;2022-09-30T22:01:24;5.88;;;2.20;;
74799;SDS011;63326;45.088;7.658;2022-09-30T22:03:51;7.65;;;3.05;;
74799;SDS011;63326;45.088;7.658;2022-09-30T22:06:18;5.40;;;1.98;;
74799;SDS011;63326;45.088;7.658;2022-09-30T22:08:44;7.30;;;2.70;;
74799;SDS011;63326;45.088;7.658;2022-09-30T22:11:13;6.57;;;2.30;;
